Harristown, IL (62537)

4:48 PM CDT on July 29, 2016 (GMT -0500)
Sanitary District of Decatur | | Change Station

Elev 604 ft 39.84 °N, 89.00 °W | Updated 28 seconds ago

Scattered Clouds
Scattered Clouds
86.7 °F
Feels Like 90 °F
N
2.7
Wind Variable Wind from WNW

Today
High -- | Low -- °F
--% Chance of Precip.
Yesterday
High -- | Low -- °F
Precip. -- in
Pressure 29.88 in
Visibility 10.0 miles
Clouds Scattered Clouds 3900 ft
Heat Index 90 °F
Dew Point 68 °F
Humidity 54%
Rainfall 0.00 in
Snow Depth Not available.
5:52 AM 8:12 PM
Waning Crescent, 19% visible
METAR KDEC 292054Z 32007KT 10SM SCT039 28/20 A2990 RMK AO2 SLP118 T02830200 57016
Pressure 29.88 in
Visibility 10.0 miles
Clouds Scattered Clouds 3900 ft
Heat Index 90 °F
Dew Point 68 °F
Humidity 54%
Rainfall 0.00 in
Snow Depth Not available.
5:52 AM 8:12 PM
Waning Crescent, 19% visible
METAR KDEC 292054Z 32007KT 10SM SCT039 28/20 A2990 RMK AO2 SLP118 T02830200 57016

10-Day Weather Forecast

Almanac

Astronomy

Jul. 29, 2016 Rise Set
Actual Time
Civil Twilight
Nautical Twilight
Astronomical Twilight
Moon
Length of Visible Light
Length of Day
Tomorrow will be .
, % of the Moon is Illuminated

Today's Extremes

State Highs State Lows

Community

WunderPhotos

Upload Photos

1,928,423 photos uploaded!

WunderBlog® & News

Nearby

Air Quality

  Air Quality AQ Index Pollutant
Not available.

Snow Depth

Station Depth Elevation

Earthquake Activity

City Distance Mag. Time & Date
Minimum magnitude displayed is 2.5.

Coastal Water Temperatures

Place Temperature

Stations

Nearby Weather Stations

Station Location Temp. Windchill Dew Point Humidity Wind Precip. Elev Updated Type
                   

Watches & Warnings

There are currently no watches in effect.